createdAt,value
2023-03-21T00:02:36.554Z,100161.20
2023-03-21T00:05:42.299Z,100154.20
2023-03-21T00:08:46.392Z,100151.75
2023-03-21T00:11:50.622Z,100150.05
2023-03-21T00:14:56.361Z,100150.45
2023-03-21T00:18:11.417Z,100144.18
2023-03-21T00:24:42.408Z,100138.73
2023-03-21T00:28:05.319Z,100135.59
2023-03-21T00:31:10.874Z,100133.64
2023-03-21T00:34:15.037Z,100135.80
2023-03-21T00:37:19.357Z,100137.14
2023-03-21T00:40:29.578Z,100138.59
2023-03-21T00:43:37.500Z,100140.14
2023-03-21T00:46:49.378Z,100141.61
2023-03-21T00:49:58.359Z,100139.98
2023-03-21T00:53:02.382Z,100140.39
2023-03-21T00:56:06.773Z,100139.13
2023-03-21T00:59:10.711Z,100136.36
2023-03-21T01:02:22.867Z,100140.06
2023-03-21T01:05:48.448Z,100138.73
2023-03-21T01:08:53.567Z,100137.40
2023-03-21T01:11:57.912Z,100138.15
2023-03-21T01:15:01.920Z,100140.39
2023-03-21T01:18:05.934Z,100132.27
2023-03-21T01:21:14.830Z,100133.23
2023-03-21T01:24:18.888Z,100128.77
2023-03-21T01:27:22.905Z,100127.69
2023-03-21T01:30:31.291Z,100126.68
2023-03-21T01:33:40.248Z,100127.20
2023-03-21T01:36:44.505Z,100124.52
2023-03-21T01:39:52.992Z,100122.27
2023-03-21T01:42:57.024Z,100119.57
2023-03-21T01:46:32.242Z,100120.00
2023-03-21T01:49:52.686Z,100119.20
2023-03-21T01:53:04.759Z,100114.73
2023-03-21T01:56:17.583Z,100112.86
2023-03-21T01:59:43.100Z,100106.45
2023-03-21T02:03:11.658Z,100104.92
2023-03-21T02:06:46.944Z,100112.97
2023-03-21T02:09:59.536Z,100109.23
2023-03-21T02:13:09.745Z,100109.45
2023-03-21T02:16:26.515Z,100107.33
2023-03-21T02:19:52.721Z,100109.58
2023-03-21T02:23:22.966Z,100114.63
2023-03-21T02:26:42.941Z,100115.28
2023-03-21T02:30:04.657Z,100111.56
2023-03-21T02:33:55.114Z,100110.16
2023-03-21T02:37:28.879Z,100107.43
2023-03-21T02:40:46.120Z,100107.42
2023-03-21T02:44:19.390Z,100114.70
2023-03-21T02:47:26.776Z,100110.48
2023-03-21T02:50:48.801Z,100108.58
2023-03-21T02:54:24.853Z,100109.39
2023-03-21T02:57:31.353Z,100107.77
2023-03-21T03:00:44.797Z,100110.35
2023-03-21T03:03:50.029Z,100113.05
2023-03-21T03:07:11.864Z,100113.56
2023-03-21T03:10:23.353Z,100117.77
2023-03-21T03:13:46.609Z,100122.36
2023-03-21T03:17:28.294Z,100122.96
2023-03-21T03:21:14.321Z,100120.52
2023-03-21T03:24:34.129Z,100124.67
2023-03-21T03:27:43.952Z,100124.79
2023-03-21T03:31:05.568Z,100128.40
2023-03-21T03:34:24.062Z,100128.52
2023-03-21T03:37:32.660Z,100129.13
2023-03-21T03:40:44.156Z,100130.05
2023-03-21T03:43:59.537Z,100131.70
2023-03-21T03:47:13.453Z,100129.98
2023-03-21T03:50:34.127Z,100132.48
2023-03-21T03:53:44.759Z,100130.05
2023-03-21T03:56:49.435Z,100134.04
2023-03-21T03:59:53.715Z,100138.03
2023-03-21T04:03:22.266Z,100134.77
2023-03-21T04:06:29.118Z,100133.55
2023-03-21T04:09:43.642Z,100132.05
2023-03-21T04:12:50.343Z,100136.05
2023-03-21T04:16:01.615Z,100137.13
2023-03-21T04:19:05.632Z,100132.02
2023-03-21T04:22:09.650Z,100132.63
2023-03-21T04:25:27.435Z,100132.83
2023-03-21T04:28:37.390Z,100132.34
2023-03-21T04:32:16.440Z,100137.08
2023-03-21T04:35:25.213Z,100132.11
2023-03-21T04:38:31.009Z,100137.20
2023-03-21T04:41:43.092Z,100135.98
2023-03-21T04:44:48.731Z,100132.84
2023-03-21T04:47:52.772Z,100131.27
2023-03-21T04:50:56.960Z,100127.98
2023-03-21T04:54:00.979Z,100131.08
2023-03-21T04:57:04.976Z,100134.17
2023-03-21T05:00:15.993Z,100138.29
2023-03-21T05:03:22.109Z,100141.14
2023-03-21T05:06:27.891Z,100142.40
2023-03-21T05:09:32.160Z,100144.70
2023-03-21T05:12:36.123Z,100146.26
2023-03-21T05:15:40.447Z,100147.34
2023-03-21T05:18:44.465Z,100147.55
2023-03-21T05:21:53.611Z,100149.41
2023-03-21T05:25:01.092Z,100149.52
2023-03-21T05:28:22.320Z,100152.13
2023-03-21T05:31:26.535Z,100154.77
2023-03-21T05:34:38.445Z,100156.07
2023-03-21T05:37:42.435Z,100159.14
2023-03-21T05:40:48.216Z,100163.27
2023-03-21T05:43:52.228Z,100161.63
2023-03-21T05:46:56.240Z,100165.27
2023-03-21T05:50:05.866Z,100168.33
2023-03-21T05:53:10.219Z,100170.19
2023-03-21T05:56:14.738Z,100173.66
2023-03-21T05:59:24.183Z,100177.61
2023-03-21T06:02:30.640Z,100175.67
2023-03-21T06:05:37.771Z,100176.58
2023-03-21T06:08:42.888Z,100179.77
2023-03-21T06:11:49.479Z,100183.77
2023-03-21T06:15:19.803Z,100188.73
2023-03-21T06:18:31.096Z,100188.45
2023-03-21T06:21:54.188Z,100197.84
2023-03-21T06:24:58.674Z,100195.23
2023-03-21T06:28:02.747Z,100198.23
2023-03-21T06:31:07.483Z,100196.54
2023-03-21T06:34:11.957Z,100200.43
2023-03-21T06:37:16.351Z,100197.05
2023-03-21T06:40:20.601Z,100198.20
2023-03-21T06:43:25.009Z,100200.73
2023-03-21T06:46:29.939Z,100205.10
2023-03-21T06:49:34.533Z,100207.34
2023-03-21T06:52:44.033Z,100209.27
2023-03-21T06:55:51.565Z,100210.12
2023-03-21T06:58:57.089Z,100211.33
2023-03-21T07:02:21.669Z,100214.61
2023-03-21T07:05:38.237Z,100216.48
2023-03-21T07:08:42.726Z,100219.33
2023-03-21T07:11:47.865Z,100222.12
2023-03-21T07:14:51.944Z,100223.33
2023-03-21T07:17:55.994Z,100224.92
2023-03-21T07:21:00.532Z,100227.27
2023-03-21T07:24:04.544Z,100224.67
2023-03-21T07:27:08.667Z,100229.39
2023-03-21T07:30:13.473Z,100231.72
2023-03-21T07:33:17.514Z,100230.38
2023-03-21T07:36:22.166Z,100227.40
2023-03-21T07:39:27.488Z,100229.67
2023-03-21T07:45:41.103Z,100231.98
2023-03-21T07:48:45.164Z,100229.77
2023-03-21T07:51:49.181Z,100229.84
2023-03-21T07:54:53.427Z,100230.58
2023-03-21T07:57:57.474Z,100229.65
2023-03-21T08:01:02.432Z,100230.25
2023-03-21T08:04:06.902Z,100232.08
2023-03-21T08:07:12.012Z,100229.68
2023-03-21T08:10:17.341Z,100232.95
2023-03-21T08:13:21.552Z,100234.27
2023-03-21T08:16:25.895Z,100236.61
2023-03-21T08:19:30.030Z,100235.92
2023-03-21T08:22:35.481Z,100240.48
2023-03-21T08:25:40.071Z,100237.96
2023-03-21T08:28:45.284Z,100238.82
2023-03-21T08:31:49.253Z,100239.80
2023-03-21T08:34:53.182Z,100241.43
2023-03-21T08:37:57.903Z,100249.44
2023-03-21T08:41:02.031Z,100248.80
2023-03-21T08:44:07.080Z,100252.84
2023-03-21T08:47:11.191Z,100253.75
2023-03-21T08:50:18.777Z,100257.14
2023-03-21T08:53:22.805Z,100255.12
2023-03-21T08:56:26.822Z,100254.13
2023-03-21T08:59:31.146Z,100260.60
2023-03-21T09:02:35.502Z,100261.33
2023-03-21T09:05:40.216Z,100261.90
2023-03-21T09:08:46.466Z,100265.88
2023-03-21T09:11:52.451Z,100266.91
2023-03-21T09:14:57.071Z,100270.81
2023-03-21T09:18:13.477Z,100273.79
2023-03-21T09:21:20.159Z,100271.73
2023-03-21T09:24:24.261Z,100273.45
2023-03-21T09:27:28.401Z,100278.14
2023-03-21T09:30:35.027Z,100284.58
2023-03-21T09:33:42.417Z,100288.91
2023-03-21T09:36:48.623Z,100286.85
2023-03-21T09:39:52.725Z,100286.33
2023-03-21T09:43:22.773Z,100287.21
2023-03-21T09:46:45.562Z,100286.88
2023-03-21T09:50:07.516Z,100287.19
2023-03-21T09:53:31.015Z,100283.09
2023-03-21T09:56:40.988Z,100286.73
2023-03-21T09:59:46.342Z,100284.00
2023-03-21T10:02:55.515Z,100280.98
2023-03-21T10:06:05.527Z,100285.75
2023-03-21T10:09:21.629Z,100284.68
2023-03-21T10:12:30.775Z,100285.98
2023-03-21T10:15:34.772Z,100287.80
2023-03-21T10:18:42.274Z,100287.35
2023-03-21T10:22:00.615Z,100287.01
2023-03-21T10:25:07.404Z,100285.76
2023-03-21T10:28:21.866Z,100288.07
2023-03-21T10:31:28.784Z,100291.40
2023-03-21T10:38:01.651Z,100303.73
2023-03-21T10:41:06.201Z,100304.64
2023-03-21T10:44:18.578Z,100308.27
2023-03-21T10:47:30.321Z,100306.91
2023-03-21T10:50:35.876Z,100310.29
2023-03-21T10:53:46.233Z,100310.34
2023-03-21T10:57:19.242Z,100310.66
2023-03-21T11:00:29.190Z,100308.02
2023-03-21T11:03:38.755Z,100309.92
2023-03-21T11:06:46.951Z,100310.77
2023-03-21T11:09:58.928Z,100309.76
2023-03-21T11:13:07.662Z,100314.05
2023-03-21T11:16:46.259Z,100315.90
2023-03-21T11:20:09.108Z,100314.77
2023-03-21T11:23:13.679Z,100311.77
2023-03-21T11:26:32.349Z,100307.49
2023-03-21T11:29:40.649Z,100300.74
2023-03-21T11:32:44.768Z,100299.40
2023-03-21T11:36:07.444Z,100298.38
2023-03-21T11:39:12.155Z,100300.72
2023-03-21T11:42:27.848Z,100296.14
2023-03-21T11:45:35.893Z,100296.67
2023-03-21T11:48:45.401Z,100292.81
2023-03-21T11:52:02.296Z,100291.09
2023-03-21T11:55:38.241Z,100289.80
2023-03-21T11:59:01.707Z,100286.10
2023-03-21T12:02:25.484Z,100285.60
2023-03-21T12:05:37.610Z,100284.30
2023-03-21T12:08:41.856Z,100286.17
2023-03-21T12:11:52.525Z,100286.89
2023-03-21T12:14:59.658Z,100285.58
2023-03-21T12:18:34.359Z,100286.05
2023-03-21T12:22:13.490Z,100286.96
2023-03-21T12:25:28.056Z,100278.09
2023-03-21T12:28:57.572Z,100276.30
2023-03-21T12:32:21.146Z,100276.70
2023-03-21T12:35:50.044Z,100279.55
2023-03-21T12:38:54.775Z,100274.66
2023-03-21T12:42:05.043Z,100273.98
2023-03-21T12:45:18.161Z,100273.17
2023-03-21T12:48:58.515Z,100270.58
2023-03-21T12:52:14.633Z,100272.68
2023-03-21T12:55:22.919Z,100270.39
2023-03-21T12:58:29.735Z,100269.14
2023-03-21T13:01:37.127Z,100268.60
2023-03-21T13:04:48.726Z,100268.84
2023-03-21T13:08:14.966Z,100265.58
2023-03-21T13:11:25.278Z,100266.05
2023-03-21T13:14:34.125Z,100265.21
2023-03-21T13:17:45.914Z,100260.64
2023-03-21T13:20:52.425Z,100256.10
2023-03-21T13:24:04.031Z,100255.92
2023-03-21T13:27:20.618Z,100256.52
2023-03-21T13:30:27.632Z,100261.86
2023-03-21T13:33:34.737Z,100265.14
2023-03-21T13:36:39.734Z,100267.00
2023-03-21T13:39:46.568Z,100274.31
2023-03-21T13:42:54.216Z,100270.48
2023-03-21T13:46:10.470Z,100267.89
2023-03-21T13:49:27.067Z,100267.52
2023-03-21T13:52:31.168Z,100264.92
2023-03-21T13:55:44.731Z,100268.13
2023-03-21T13:59:02.947Z,100268.52
2023-03-21T14:02:33.484Z,100269.10
2023-03-21T14:05:39.321Z,100262.09
2023-03-21T14:08:49.195Z,100264.15
2023-03-21T14:11:56.656Z,100259.05
2023-03-21T14:15:19.016Z,100260.84
2023-03-21T14:18:35.009Z,100261.57
2023-03-21T14:21:51.669Z,100261.77
2023-03-21T14:24:57.179Z,100260.42
2023-03-21T14:28:04.579Z,100258.55
2023-03-21T14:31:16.206Z,100255.02
2023-03-21T14:34:22.239Z,100254.63
2023-03-21T14:37:32.906Z,100250.85
2023-03-21T14:40:37.300Z,100250.74
2023-03-21T14:43:41.466Z,100251.30
2023-03-21T14:46:45.492Z,100247.05
2023-03-21T14:49:51.191Z,100247.04
2023-03-21T14:52:55.883Z,100250.36
2023-03-21T14:56:08.898Z,100245.46
2023-03-21T14:59:15.997Z,100244.49
2023-03-21T15:02:25.787Z,100246.52
2023-03-21T15:05:37.381Z,100247.28
2023-03-21T15:08:55.987Z,100244.68
2023-03-21T15:12:01.565Z,100242.11
2023-03-21T15:15:07.026Z,100242.94
2023-03-21T15:18:16.438Z,100236.50
2023-03-21T15:21:23.848Z,100243.08
2023-03-21T15:24:36.953Z,100235.84
2023-03-21T15:27:43.151Z,100236.98
2023-03-21T15:30:50.497Z,100237.02
2023-03-21T15:33:56.160Z,100233.80
2023-03-21T15:37:08.587Z,100233.23
2023-03-21T15:40:18.616Z,100233.77
2023-03-21T15:43:22.655Z,100237.16
2023-03-21T15:46:43.744Z,100238.02
2023-03-21T15:49:55.645Z,100237.49
2023-03-21T15:53:02.963Z,100238.44
2023-03-21T15:56:16.148Z,100238.31
2023-03-21T15:59:24.092Z,100237.69
2023-03-21T16:02:31.016Z,100237.64
2023-03-21T16:05:35.313Z,100236.73
2023-03-21T16:08:46.269Z,100234.52
2023-03-21T16:11:51.738Z,100234.23
2023-03-21T16:14:56.274Z,100235.27
2023-03-21T16:18:03.768Z,100236.01
2023-03-21T16:21:12.184Z,100238.40
2023-03-21T16:24:16.299Z,100238.79
2023-03-21T16:27:22.347Z,100239.04
2023-03-21T16:30:26.380Z,100234.08
2023-03-21T16:33:30.384Z,100237.35
2023-03-21T16:36:37.240Z,100235.21
2023-03-21T16:39:42.036Z,100235.48
2023-03-21T16:42:46.128Z,100240.31
2023-03-21T16:45:50.182Z,100239.41
2023-03-21T16:48:57.873Z,100241.52
2023-03-21T16:52:02.168Z,100243.23
2023-03-21T16:55:08.740Z,100243.88
2023-03-21T16:58:15.929Z,100247.63
2023-03-21T17:01:21.342Z,100246.60
2023-03-21T17:04:25.508Z,100253.12
2023-03-21T17:07:29.977Z,100256.11
2023-03-21T17:10:34.049Z,100256.74
2023-03-21T17:13:38.454Z,100259.39
2023-03-21T17:16:43.482Z,100262.97
2023-03-21T17:19:47.533Z,100263.72
2023-03-21T17:22:51.758Z,100267.65
2023-03-21T17:25:56.383Z,100270.63
2023-03-21T17:29:00.790Z,100274.63
2023-03-21T17:32:05.034Z,100281.44
2023-03-21T17:35:09.632Z,100281.52
2023-03-21T17:38:18.000Z,100287.29
2023-03-21T17:41:22.902Z,100286.98
2023-03-21T17:44:26.926Z,100289.47
2023-03-21T17:47:31.151Z,100292.95
2023-03-21T17:50:37.397Z,100293.35
2023-03-21T17:53:43.474Z,100292.49
2023-03-21T17:56:48.524Z,100299.33
2023-03-21T17:59:52.733Z,100305.39
2023-03-21T18:02:57.387Z,100305.73
2023-03-21T18:06:01.286Z,100312.77
2023-03-21T18:09:12.038Z,100315.53
2023-03-21T18:12:16.273Z,100318.71
2023-03-21T18:15:21.923Z,100316.50
2023-03-21T18:18:27.367Z,100320.40
2023-03-21T18:21:32.859Z,100319.92
2023-03-21T18:24:37.360Z,100324.17
2023-03-21T18:28:06.845Z,100323.44
2023-03-21T18:31:12.551Z,100323.36
2023-03-21T18:34:19.910Z,100325.88
2023-03-21T18:37:23.939Z,100327.21
2023-03-21T18:40:28.467Z,100328.41
2023-03-21T18:46:57.955Z,100329.15
2023-03-21T18:50:13.593Z,100335.64
2023-03-21T18:53:18.314Z,100336.23
2023-03-21T18:57:13.140Z,100337.92
2023-03-21T18:59:47.048Z,100343.17
2023-03-21T19:03:04.239Z,100341.48
2023-03-21T19:06:16.319Z,100344.65
2023-03-21T19:09:29.565Z,100341.29
2023-03-21T19:12:35.874Z,100336.37
2023-03-21T19:15:41.338Z,100334.80
2023-03-21T19:18:54.370Z,100331.11
2023-03-21T19:22:00.930Z,100331.83
2023-03-21T19:25:06.084Z,100329.66
2023-03-21T19:28:10.080Z,100331.80
2023-03-21T19:31:14.402Z,100335.20
2023-03-21T19:34:19.050Z,100338.16
2023-03-21T19:37:23.050Z,100344.88
2023-03-21T19:40:27.181Z,100340.38
2023-03-21T19:43:33.361Z,100337.34
2023-03-21T19:46:37.865Z,100335.48
2023-03-21T19:50:32.986Z,100340.41
2023-03-21T19:53:06.372Z,100341.48
2023-03-21T19:56:20.723Z,100345.86
2023-03-21T19:59:27.302Z,100346.41
2023-03-21T20:02:36.518Z,100347.36
2023-03-21T20:05:42.008Z,100342.63
2023-03-21T20:12:10.399Z,100350.14
2023-03-21T20:15:19.484Z,100351.80
2023-03-21T20:18:24.990Z,100358.11
2023-03-21T20:21:42.266Z,100361.45
2023-03-21T20:24:51.742Z,100365.50
2023-03-21T20:28:12.695Z,100362.64
2023-03-21T20:31:19.402Z,100365.45
2023-03-21T20:34:23.487Z,100363.77
2023-03-21T20:37:27.537Z,100364.81
2023-03-21T20:40:32.214Z,100370.96
2023-03-21T20:44:25.498Z,100373.86
2023-03-21T20:47:00.546Z,100365.45
2023-03-21T20:50:11.297Z,100361.77
2023-03-21T20:53:15.313Z,100362.44
2023-03-21T20:56:20.775Z,100364.52
2023-03-21T20:59:27.535Z,100366.37
2023-03-21T21:02:32.281Z,100365.73
2023-03-21T21:05:38.220Z,100363.91
2023-03-21T21:08:43.181Z,100361.02
2023-03-21T21:15:16.659Z,100349.65
2023-03-21T21:18:21.124Z,100348.60
2023-03-21T21:21:25.442Z,100345.48
2023-03-21T21:24:29.496Z,100346.19
2023-03-21T21:27:33.488Z,100347.17
2023-03-21T21:30:41.537Z,100347.02
2023-03-21T21:33:48.372Z,100344.16
2023-03-21T21:36:52.406Z,100344.64
2023-03-21T21:39:56.509Z,100348.78
2023-03-21T21:43:03.620Z,100347.26
2023-03-21T21:46:07.740Z,100348.67
2023-03-21T21:49:11.739Z,100346.30
2023-03-21T21:52:24.182Z,100342.60
2023-03-21T21:55:28.164Z,100343.36
2023-03-21T21:58:39.045Z,100342.53
2023-03-21T22:01:42.974Z,100340.09
2023-03-21T22:04:46.884Z,100341.88
2023-03-21T22:07:53.872Z,100339.95
2023-03-21T22:11:00.717Z,100344.42
2023-03-21T22:14:04.606Z,100349.92
2023-03-21T22:17:09.165Z,100356.44
2023-03-21T22:20:15.202Z,100358.28
2023-03-21T22:23:19.594Z,100357.95
2023-03-21T22:26:23.840Z,100352.70
2023-03-21T22:29:29.128Z,100356.35
2023-03-21T22:32:34.948Z,100358.98
2023-03-21T22:35:39.072Z,100358.56
2023-03-21T22:38:43.982Z,100358.16
2023-03-21T22:41:47.959Z,100357.42
2023-03-21T22:44:51.987Z,100355.02
2023-03-21T22:47:56.257Z,100349.80
2023-03-21T22:51:01.038Z,100348.69
2023-03-21T22:54:05.561Z,100345.94
2023-03-21T22:57:09.504Z,100344.42
2023-03-21T23:00:14.445Z,100339.73
2023-03-21T23:03:18.736Z,100340.21
2023-03-21T23:06:22.750Z,100339.83
2023-03-21T23:09:27.398Z,100339.50
2023-03-21T23:12:31.934Z,100343.98
2023-03-21T23:15:36.020Z,100339.16
2023-03-21T23:18:40.037Z,100344.84
2023-03-21T23:21:44.571Z,100343.27
2023-03-21T23:24:49.111Z,100339.61
2023-03-21T23:27:53.220Z,100341.74
2023-03-21T23:30:57.284Z,100344.41
2023-03-21T23:34:02.043Z,100337.90
2023-03-21T23:37:07.000Z,100338.85
2023-03-21T23:40:12.721Z,100340.39
2023-03-21T23:43:16.606Z,100332.80
2023-03-21T23:46:20.986Z,100323.38
2023-03-21T23:49:26.447Z,100324.16
2023-03-21T23:52:30.549Z,100323.43
2023-03-21T23:55:37.983Z,100323.54
2023-03-21T23:58:42.177Z,100320.55
